Time;durP1;ratioP1;P1;durP2;ratioP2;P2;SDS_P1;SDS_P2;PMS_P1;PMS_P2;Temp;Humidity;BMP_temperature;BMP_pressure;BME280_temperature;BME280_humidity;BME280_pressure;Samples;Min_cycle;Max_cycle;Signal;HPM_P1;HPM_P2
2021/11/10 00:00:45;;;;;;;13.70;9.95;;;;;;;;;;5048840;28;20847;-83
2021/11/10 00:03:12;;;;;;;15.10;11.20;;;2.70;99.90;;;;;;5049697;28;20296;-83
2021/11/10 00:05:40;;;;;;;14.15;11.20;;;2.50;99.90;;;;;;5049660;28;20233;-84
2021/11/10 00:08:07;;;;;;;10.82;8.35;;;;;;;;;;5049772;28;20529;-84
2021/11/10 00:10:36;;;;;;;19.58;11.60;;;2.50;99.90;;;;;;5049295;28;20626;-83
2021/11/10 00:13:19;;;;;;;15.13;11.50;;;;;;;;;;5049184;28;20632;-84
2021/11/10 00:15:47;;;;;;;12.60;10.02;;;2.20;99.90;;;;;;5048538;28;20274;-83
2021/11/10 00:18:15;;;;;;;12.32;9.05;;;;;;;;;;5049541;28;20237;-83
2021/11/10 00:20:42;;;;;;;12.95;9.85;;;;;;;;;;5048978;28;20205;-83
2021/11/10 00:23:09;;;;;;;11.75;9.45;;;;;;;;;;5049465;28;20225;-84
2021/11/10 00:25:39;;;;;;;12.13;9.43;;;;;;;;;;5049222;28;20284;-83
2021/11/10 00:28:07;;;;;;;16.10;10.32;;;;;;;;;;5049574;28;20209;-84
2021/11/10 00:30:34;;;;;;;12.73;10.63;;;2.60;99.90;;;;;;5048981;28;20256;-84
2021/11/10 00:33:01;;;;;;;15.45;9.07;;;;;;;;;;5049362;28;20205;-83
2021/11/10 00:35:28;;;;;;;14.77;9.70;;;;;;;;;;5049639;28;20650;-84
2021/11/10 00:37:56;;;;;;;12.67;8.83;;;;;;;;;;5010281;28;1121223;-83
2021/11/10 00:40:23;;;;;;;13.13;9.70;;;;;;;;;;5049663;28;20201;-83
2021/11/10 00:42:51;;;;;;;13.88;10.10;;;;;;;;;;5051667;28;20240;-83
2021/11/10 00:45:19;;;;;;;13.00;10.50;;;;;;;;;;5054502;28;20295;-83
2021/11/10 00:47:46;;;;;;;11.52;8.80;;;;;;;;;;5054633;28;20271;-84
2021/11/10 00:50:13;;;;;;;12.95;9.13;;;;;;;;;;5053311;28;20202;-83
2021/11/10 00:52:40;;;;;;;13.00;9.20;;;;;;;;;;5053460;28;20229;-83
2021/11/10 00:55:08;;;;;;;11.15;8.88;;;;;;;;;;5054135;28;20240;-83
2021/11/10 00:57:35;;;;;;;12.43;8.80;;;;;;;;;;5053941;28;20292;-83
2021/11/10 01:00:05;;;;;;;14.20;10.15;;;2.10;99.90;;;;;;5053834;28;20237;-83
2021/11/10 01:02:32;;;;;;;12.65;8.90;;;;;;;;;;5053738;28;20274;-83
2021/11/10 01:04:59;;;;;;;14.23;10.50;;;;;;;;;;5053359;28;20693;-83
2021/11/10 01:07:27;;;;;;;14.95;9.00;;;;;;;;;;5053543;28;20241;-83
2021/11/10 01:09:58;;;;;;;10.82;8.93;;;;;;;;;;5053731;28;20243;-84
2021/11/10 01:12:26;;;;;;;13.30;9.73;;;;;;;;;;5053055;28;20224;-83
2021/11/10 01:14:53;;;;;;;14.23;9.75;;;;;;;;;;5052509;28;20296;-83
2021/11/10 01:17:21;;;;;;;13.55;10.88;;;;;;;;;;5054055;28;20201;-83
2021/11/10 01:19:49;;;;;;;14.35;10.38;;;;;;;;;;5052888;28;20231;-82
2021/11/10 01:22:16;;;;;;;14.73;9.63;;;;;;;;;;5052909;28;20667;-83
2021/11/10 01:24:43;;;;;;;12.93;9.48;;;;;;;;;;5053296;28;20700;-83
2021/11/10 01:27:10;;;;;;;12.60;9.35;;;;;;;;;;5053237;28;20739;-83
2021/11/10 01:29:37;;;;;;;11.32;10.15;;;;;;;;;;5053279;28;20667;-83
2021/11/10 01:32:05;;;;;;;13.75;9.30;;;;;;;;;;5052491;28;20396;-83
2021/11/10 01:34:34;;;;;;;11.02;8.35;;;;;;;;;;5053052;28;20236;-83
2021/11/10 01:37:01;;;;;;;15.32;10.57;;;;;;;;;;5053132;28;20797;-83
2021/11/10 01:39:28;;;;;;;14.32;9.63;;;;;;;;;;5053220;28;20602;-83
2021/11/10 01:42:02;;;;;;;13.27;10.80;;;2.00;99.90;;;;;;5052430;28;20235;-83
2021/11/10 01:44:29;;;;;;;12.48;9.50;;;;;;;;;;5053044;28;20293;-83
2021/11/10 01:46:59;;;;;;;14.93;10.50;;;2.10;99.90;;;;;;5052603;28;20781;-83
2021/11/10 01:49:26;;;;;;;15.20;12.82;;;;;;;;;;5052327;28;20772;-83
2021/11/10 01:51:55;;;;;;;14.60;12.00;;;2.10;99.90;;;;;;5052414;28;20233;-83
2021/11/10 01:54:25;;;;;;;15.52;11.65;;;2.20;99.90;;;;;;5052472;28;20295;-83
2021/11/10 01:56:52;;;;;;;10.88;9.77;;;2.10;99.90;;;;;;5053350;28;20210;-83
2021/11/10 01:59:29;;;;;;;14.02;10.30;;;2.10;99.90;;;;;;5052681;28;20220;-83
2021/11/10 02:01:56;;;;;;;13.98;9.35;;;;;;;;;;5051869;28;20290;-82
2021/11/10 02:04:24;;;;;;;14.15;10.30;;;;;;;;;;5052705;28;20270;-83
2021/11/10 02:06:53;;;;;;;14.07;9.40;;;;;;;;;;5052725;28;20297;-83
2021/11/10 02:09:24;;;;;;;13.38;10.05;;;;;;;;;;5052504;28;20212;-83
2021/11/10 02:11:51;;;;;;;13.18;10.18;;;1.90;99.90;;;;;;5051447;28;20221;-83
2021/11/10 02:14:20;;;;;;;15.75;12.13;;;1.90;99.90;;;;;;5051218;28;20717;-82
2021/11/10 02:16:47;;;;;;;10.88;9.20;;;;;;;;;;5052686;28;20202;-83
2021/11/10 02:19:15;;;;;;;19.10;10.95;;;1.90;99.90;;;;;;5052586;28;20213;-83
2021/11/10 02:21:46;;;;;;;21.42;11.20;;;1.90;99.90;;;;;;5051891;28;20236;-83
2021/11/10 02:24:13;;;;;;;24.20;11.80;;;;;;;;;;5052110;28;20220;-83
2021/11/10 02:26:43;;;;;;;12.13;10.38;;;1.90;99.90;;;;;;5052423;28;20207;-83
2021/11/10 02:29:10;;;;;;;12.32;9.45;;;;;;;;;;5052531;28;20216;-83
2021/11/10 02:31:37;;;;;;;22.55;10.18;;;;;;;;;;5051810;28;20328;-83
2021/11/10 02:34:05;;;;;;;14.57;10.70;;;1.70;99.90;;;;;;5052102;28;20285;-83
2021/11/10 02:36:34;;;;;;;15.98;10.90;;;1.70;99.90;;;;;;5051934;28;20209;-83
2021/11/10 02:39:06;;;;;;;12.88;9.23;;;1.70;99.90;;;;;;5051452;28;20275;-83
2021/11/10 02:41:33;;;;;;;11.43;9.25;;;;;;;;;;5051634;28;20646;-83
2021/11/10 02:44:00;;;;;;;15.75;11.18;;;;;;;;;;5051925;28;20232;-83
2021/11/10 02:46:27;;;;;;;14.27;10.20;;;;;;;;;;5052162;28;20235;-83
2021/11/10 02:48:54;;;;;;;14.75;10.48;;;;;;;;;;5051967;28;20323;-83
2021/11/10 02:51:21;;;;;;;13.25;10.85;;;;;;;;;;5050747;28;20313;-83
2021/11/10 02:53:49;;;;;;;16.77;11.43;;;;;;;;;;5051854;28;20228;-84
2021/11/10 02:56:17;;;;;;;15.88;11.40;;;1.80;99.90;;;;;;5051794;28;20299;-83
2021/11/10 02:58:45;;;;;;;18.90;11.52;;;;;;;;;;5051756;28;20239;-83
2021/11/10 03:01:12;;;;;;;17.73;12.20;;;;;;;;;;5050978;28;20236;-83
2021/11/10 03:03:39;;;;;;;19.25;12.05;;;;;;;;;;5051588;28;20627;-84
2021/11/10 03:06:06;;;;;;;16.88;10.45;;;;;;;;;;5049998;28;20303;-83
2021/11/10 03:08:33;;;;;;;16.52;10.85;;;;;;;;;;5051373;28;20308;-83
2021/11/10 03:11:01;;;;;;;16.08;11.88;;;;;;;;;;5050589;28;20253;-83
2021/11/10 03:13:29;;;;;;;16.90;12.50;;;;;;;;;;5051242;28;20231;-83
2021/11/10 03:15:57;;;;;;;20.42;12.13;;;;;;;;;;5050028;28;20621;-83
2021/11/10 03:18:24;;;;;;;18.30;11.90;;;;;;;;;;5050847;28;20236;-84
2021/11/10 03:20:51;;;;;;;16.15;10.10;;;;;;;;;;5050949;28;20314;-83
2021/11/10 03:23:18;;;;;;;17.08;13.65;;;;;;;;;;5051146;28;20308;-84
2021/11/10 03:25:45;;;;;;;18.55;12.45;;;;;;;;;;5051102;28;20201;-83
2021/11/10 03:28:12;;;;;;;19.90;11.35;;;;;;;;;;5051265;28;20312;-83
2021/11/10 03:30:41;;;;;;;18.13;11.65;;;;;;;;;;5050600;28;20267;-83
2021/11/10 03:33:08;;;;;;;18.02;11.35;;;;;;;;;;5050606;28;20312;-83
2021/11/10 03:35:35;;;;;;;13.70;10.48;;;;;;;;;;5051284;28;20234;-83
2021/11/10 03:38:02;;;;;;;18.67;11.35;;;;;;;;;;5050757;28;20238;-84
2021/11/10 03:40:29;;;;;;;16.10;11.27;;;;;;;;;;5050362;28;20632;-83
2021/11/10 03:42:57;;;;;;;16.50;12.55;;;;;;;;;;5051084;28;20618;-84
2021/11/10 03:45:24;;;;;;;17.13;12.75;;;;;;;;;;5050884;28;20237;-83
2021/11/10 03:47:52;;;;;;;27.38;17.05;;;;;;;;;;5050479;28;20307;-83
2021/11/10 03:50:20;;;;;;;20.23;14.63;;;;;;;;;;5050369;28;20295;-84
2021/11/10 03:52:47;;;;;;;17.65;13.23;;;;;;;;;;5050388;28;20349;-83
2021/11/10 03:55:14;;;;;;;23.77;13.68;;;;;;;;;;5050503;28;20205;-83
2021/11/10 03:57:41;;;;;;;19.92;14.75;;;;;;;;;;5050530;28;20228;-83
2021/11/10 04:00:09;;;;;;;22.27;13.10;;;;;;;;;;5049790;28;20597;-83
2021/11/10 04:02:36;;;;;;;18.25;12.73;;;;;;;;;;5050187;28;20244;-83
2021/11/10 04:05:05;;;;;;;25.30;11.35;;;1.70;99.90;;;;;;5050571;28;20288;-83
2021/11/10 04:07:32;;;;;;;17.02;11.80;;;;;;;;;;5050498;28;20204;-83
2021/11/10 04:10:00;;;;;;;16.42;11.80;;;;;;;;;;5050264;28;20295;-83
2021/11/10 04:12:27;;;;;;;19.05;11.10;;;;;;;;;;5049739;28;20311;-83
2021/11/10 04:14:54;;;;;;;22.38;13.70;;;;;;;;;;5049267;28;20228;-83
2021/11/10 04:17:21;;;;;;;15.68;12.05;;;;;;;;;;5050238;28;20237;-83
2021/11/10 04:19:48;;;;;;;17.95;12.20;;;;;;;;;;5050749;28;20291;-83
2021/11/10 04:22:20;;;;;;;19.92;12.20;;;;;;;;;;5049600;28;20234;-83
2021/11/10 04:24:47;;;;;;;12.45;10.63;;;;;;;;;;5049977;28;20223;-84
2021/11/10 04:27:18;;;;;;;25.27;13.57;;;;;;;;;;5049375;28;20250;-83
2021/11/10 04:29:45;;;;;;;18.58;12.40;;;;;;;;;;5050379;28;20279;-83
2021/11/10 04:32:12;;;;;;;16.33;11.60;;;;;;;;;;5049536;28;20279;-84
2021/11/10 04:34:40;;;;;;;24.08;13.98;;;;;;;;;;5050263;28;20261;-83
2021/11/10 04:37:10;;;;;;;16.65;12.13;;;;;;;;;;5049691;28;20235;-84
2021/11/10 04:39:39;;;;;;;22.85;13.45;;;;;;;;;;5049597;28;20208;-83
2021/11/10 04:42:06;;;;;;;19.65;12.50;;;;;;;;;;5049638;28;20224;-83
2021/11/10 04:44:33;;;;;;;15.95;12.00;;;;;;;;;;5050138;28;20679;-83
2021/11/10 04:47:00;;;;;;;23.85;12.07;;;;;;;;;;5050100;28;20619;-83
2021/11/10 04:49:29;;;;;;;15.75;11.23;;;;;;;;;;5050425;28;20682;-83
2021/11/10 04:51:58;;;;;;;13.77;10.68;;;1.10;99.90;;;;;;5049171;28;20717;-83
2021/11/10 04:54:30;;;;;;;15.90;11.65;;;;;;;;;;5049899;28;20418;-83
2021/11/10 04:56:58;;;;;;;16.80;11.13;;;;;;;;;;5050196;28;20230;-83
2021/11/10 04:59:26;;;;;;;15.13;10.73;;;;;;;;;;5050421;28;20607;-83
2021/11/10 05:02:23;;;;;;;13.88;10.73;;;;;;;;;;5049098;28;20606;-83
2021/11/10 05:04:48;;;;;;;13.85;10.18;;;;;;;;;;5049464;28;20216;-83
2021/11/10 05:07:16;;;;;;;14.63;11.18;;;;;;;;;;5049990;28;20301;-83
2021/11/10 05:09:43;;;;;;;15.27;10.95;;;;;;;;;;5049870;28;20231;-83
2021/11/10 05:12:12;;;;;;;17.10;10.80;;;;;;;;;;5049484;28;20307;-83
2021/11/10 05:14:39;;;;;;;14.82;10.20;;;;;;;;;;5048811;28;20201;-83
2021/11/10 05:17:06;;;;;;;20.17;11.02;;;;;;;;;;5049913;28;20666;-83
2021/11/10 05:19:33;;;;;;;14.45;11.05;;;;;;;;;;5050149;28;20240;-83
2021/11/10 05:22:01;;;;;;;14.20;10.85;;;;;;;;;;5049206;28;20232;-83
2021/11/10 05:24:28;;;;;;;13.73;11.50;;;;;;;;;;5049764;28;20208;-83
2021/11/10 05:26:56;;;;;;;17.08;10.63;;;;;;;;;;5049641;28;20264;-83
2021/11/10 05:29:25;;;;;;;12.98;10.13;;;;;;;;;;5051568;28;20236;-83
2021/11/10 05:31:52;;;;;;;14.70;9.80;;;;;;;;;;5051928;28;20227;-83
2021/11/10 05:34:19;;;;;;;16.48;10.93;;;;;;;;;;5053229;28;20291;-83
2021/11/10 05:36:46;;;;;;;13.63;9.60;;;;;;;;;;5052980;28;20235;-83
2021/11/10 05:39:14;;;;;;;13.65;11.15;;;;;;;;;;5052776;28;20204;-84
2021/11/10 05:41:41;;;;;;;15.48;11.05;;;;;;;;;;5052729;28;20202;-83
2021/11/10 05:44:09;;;;;;;15.25;10.50;;;;;;;;;;5052749;28;20283;-83
2021/11/10 05:46:38;;;;;;;14.05;11.65;;;;;;;;;;5053166;28;20590;-83
2021/11/10 05:49:05;;;;;;;15.60;11.20;;;;;;;;;;5053278;28;20200;-83
2021/11/10 05:51:32;;;;;;;14.90;10.20;;;;;;;;;;5052342;28;20754;-83
2021/11/10 05:53:59;;;;;;;15.90;11.85;;;;;;;;;;5052892;28;20281;-83
2021/11/10 05:56:28;;;;;;;23.65;13.30;;;1.00;99.90;;;;;;5052587;28;20258;-83
2021/11/10 05:58:57;;;;;;;16.85;11.50;;;;;;;;;;5052282;28;20204;-83
2021/11/10 06:01:25;;;;;;;17.00;11.38;;;1.10;99.90;;;;;;5052370;28;20261;-83
2021/11/10 06:03:54;;;;;;;18.55;12.38;;;;;;;;;;5052626;28;20244;-83
2021/11/10 06:06:21;;;;;;;14.20;10.45;;;;;;;;;;5052490;28;20203;-83
2021/11/10 06:08:48;;;;;;;19.95;11.77;;;;;;;;;;5052510;28;20239;-83
2021/11/10 06:11:15;;;;;;;20.73;12.32;;;;;;;;;;5051466;28;20797;-83
2021/11/10 06:13:42;;;;;;;18.58;11.35;;;;;;;;;;5052099;28;20796;-83
2021/11/10 06:16:10;;;;;;;24.55;10.38;;;;;;;;;;5051186;28;20232;-83
2021/11/10 06:18:37;;;;;;;20.23;11.77;;;;;;;;;;5052448;28;20269;-83
2021/11/10 06:21:06;;;;;;;16.70;11.30;;;;;;;;;;5051576;28;20250;-83
2021/11/10 06:23:33;;;;;;;15.45;10.55;;;;;;;;;;5052335;28;20224;-83
2021/11/10 06:26:00;;;;;;;18.25;12.35;;;;;;;;;;5052000;28;20200;-83
2021/11/10 06:28:27;;;;;;;19.92;11.30;;;;;;;;;;5052186;28;20247;-83
2021/11/10 06:30:55;;;;;;;16.05;12.18;;;;;;;;;;5051936;28;20212;-83
2021/11/10 06:33:22;;;;;;;17.98;12.38;;;;;;;;;;5052502;28;20224;-83
2021/11/10 06:35:49;;;;;;;16.63;12.38;;;;;;;;;;5052312;28;20745;-84
2021/11/10 06:38:18;;;;;;;19.45;12.68;;;;;;;;;;5051770;28;20218;-83
2021/11/10 06:40:45;;;;;;;16.48;10.93;;;;;;;;;;5049959;28;20652;-83
2021/11/10 06:43:12;;;;;;;19.85;12.10;;;;;;;;;;5051843;28;20745;-83
2021/11/10 06:45:40;;;;;;;18.00;11.82;;;;;;;;;;5052148;28;20305;-83
2021/11/10 06:48:08;;;;;;;17.27;11.52;;;;;;;;;;5052122;28;20208;-83
2021/11/10 06:50:35;;;;;;;16.42;11.15;;;;;;;;;;5051196;28;20713;-83
2021/11/10 06:53:02;;;;;;;16.65;11.50;;;;;;;;;;5051386;28;20554;-82
2021/11/10 06:55:30;;;;;;;21.83;12.18;;;;;;;;;;5052127;28;20625;-83
2021/11/10 06:57:58;;;;;;;21.55;12.60;;;;;;;;;;5051624;28;20299;-83
2021/11/10 07:00:28;;;;;;;17.85;11.57;;;;;;;;;;5051159;28;20204;-82
2021/11/10 07:02:55;;;;;;;14.07;10.93;;;;;;;;;;5051763;28;20232;-83
2021/11/10 07:05:22;;;;;;;18.48;12.05;;;;;;;;;;5051588;28;20285;-83
2021/11/10 07:07:49;;;;;;;19.27;12.13;;;;;;;;;;5051041;28;20200;-83
2021/11/10 07:10:17;;;;;;;14.48;10.85;;;;;;;;;;5050909;28;20197;-83
2021/11/10 07:12:45;;;;;;;15.30;11.80;;;1.80;99.90;;;;;;5051200;28;20216;-83
2021/11/10 07:15:12;;;;;;;17.92;11.52;;;;;;;;;;5050215;28;20224;-83
2021/11/10 07:17:39;;;;;;;18.63;12.20;;;;;;;;;;5051170;28;20200;-83
2021/11/10 07:20:07;;;;;;;20.40;12.13;;;;;;;;;;5050392;28;20205;-83
2021/11/10 07:22:34;;;;;;;20.92;13.25;;;;;;;;;;5051042;28;20244;-84
2021/11/10 07:25:02;;;;;;;15.73;13.05;;;;;;;;;;5051105;28;20744;-85
2021/11/10 07:27:30;;;;;;;20.08;12.38;;;;;;;;;;5051042;28;20200;-84
2021/11/10 07:29:59;;;;;;;18.95;13.35;;;;;;;;;;5051168;28;20202;-85
2021/11/10 07:32:26;;;;;;;17.90;12.90;;;;;;;;;;5050427;28;20666;-85
2021/11/10 07:34:53;;;;;;;16.23;11.52;;;;;;;;;;5050876;28;20365;-85
2021/11/10 07:37:20;;;;;;;19.20;13.75;;;;;;;;;;5050954;28;20209;-85
2021/11/10 07:39:48;;;;;;;13.43;12.02;;;;;;;;;;5050779;28;20274;-85
2021/11/10 07:42:15;;;;;;;21.42;13.85;;;;;;;;;;5050283;28;20229;-85
2021/11/10 07:44:42;;;;;;;24.20;14.88;;;;;;;;;;5050642;28;20216;-85
2021/11/10 07:47:14;;;;;;;19.45;14.05;;;;;;;;;;5050324;28;20667;-85
2021/11/10 07:49:41;;;;;;;17.85;13.80;;;;;;;;;;5050874;28;20233;-85
2021/11/10 07:52:08;;;;;;;31.58;16.05;;;;;;;;;;5049757;28;20285;-85
2021/11/10 07:54:36;;;;;;;23.42;14.07;;;;;;;;;;5052597;28;20662;-85
2021/11/10 07:57:03;;;;;;;28.38;13.38;;;;;;;;;;5064965;28;20239;-85
2021/11/10 07:59:30;;;;;;;21.23;14.45;;;;;;;;;;5065229;28;20200;-85
2021/11/10 08:01:57;;;;;;;21.88;14.65;;;;;;;;;;5064318;28;20201;-85
2021/11/10 08:04:26;;;;;;;21.05;14.77;;;;;;;;;;5059638;28;20723;-84
2021/11/10 08:06:56;;;;;;;20.73;13.65;;;;;;;;;;5051780;28;20226;-84
2021/11/10 08:09:23;;;;;;;20.48;14.50;;;;;;;;;;5051504;28;20704;-84
2021/11/10 08:11:50;;;;;;;20.95;16.30;;;;;;;;;;5051424;28;20197;-84
2021/11/10 08:14:19;;;;;;;18.85;14.27;;;;;;;;;;5055676;28;20217;-83
2021/11/10 08:16:46;;;;;;;14.90;11.77;;;;;;;;;;5056221;28;20210;-84
2021/11/10 08:19:14;;;;;;;21.70;16.30;;;;;;;;;;5059885;28;20189;-84
2021/11/10 08:21:43;;;;;;;27.77;16.50;;;;;;;;;;5052958;28;20288;-83
2021/11/10 08:24:10;;;;;;;21.80;14.90;;;;;;;;;;5050564;28;20221;-83
2021/11/10 08:26:37;;;;;;;17.17;13.75;;;;;;;;;;5050408;28;20664;-83
2021/11/10 08:29:04;;;;;;;17.42;12.90;;;;;;;;;;5050276;28;20230;-83
2021/11/10 08:31:32;;;;;;;23.10;16.75;;;;;;;;;;5050128;28;20668;-83
2021/11/10 08:33:59;;;;;;;24.35;15.80;;;;;;;;;;5050440;28;20263;-83
2021/11/10 08:36:26;;;;;;;19.13;15.27;;;;;;;;;;5050399;28;20218;-83
2021/11/10 08:38:55;;;;;;;19.50;14.32;;;;;;;;;;5050538;28;20221;-84
2021/11/10 08:41:23;;;;;;;22.35;14.38;;;;;;;;;;5049677;28;20264;-83
2021/11/10 08:43:50;;;;;;;17.42;13.93;;;;;;;;;;5050438;28;20267;-83
2021/11/10 08:46:18;;;;;;;25.08;13.88;;;;;;;;;;5050209;28;20210;-84
2021/11/10 08:48:47;;;;;;;20.80;15.05;;;;;;;;;;5060997;28;20282;-83
2021/11/10 08:51:14;;;;;;;18.65;13.75;;;;;;;;;;5057121;28;20195;-83
2021/11/10 08:53:41;;;;;;;18.38;13.88;;;;;;;;;;5066452;28;20260;-82
2021/11/10 08:56:11;;;;;;;15.45;11.70;;;4.60;99.90;;;;;;5053555;28;20229;-83
2021/11/10 08:58:38;;;;;;;21.40;12.77;;;;;;;;;;5061867;28;20798;-84
2021/11/10 09:01:05;;;;;;;20.40;12.18;;;;;;;;;;5061362;28;20684;-83
2021/11/10 09:03:33;;;;;;;25.30;13.52;;;;;;;;;;5055332;28;20208;-83
2021/11/10 09:06:00;;;;;;;19.08;11.90;;;;;;;;;;5070615;28;20203;-83
2021/11/10 09:08:27;;;;;;;18.38;12.80;;;;;;;;;;5059815;28;20256;-83
2021/11/10 09:10:55;;;;;;;20.60;12.18;;;;;;;;;;5063714;28;20530;-83
2021/11/10 09:13:23;;;;;;;21.27;14.25;;;4.80;99.90;;;;;;5067894;28;20659;-83
2021/11/10 09:15:51;;;;;;;19.88;13.82;;;;;;;;;;5056976;28;20203;-83
2021/11/10 09:18:18;;;;;;;18.65;13.82;;;;;;;;;;5068734;28;20258;-83
2021/11/10 09:20:46;;;;;;;18.45;13.18;;;;;;;;;;5062408;28;20196;-83
2021/11/10 09:23:16;;;;;;;18.83;13.38;;;5.00;99.90;;;;;;5067571;28;20257;-84
2021/11/10 09:25:44;;;;;;;21.00;14.52;;;;;;;;;;5056116;28;20230;-83
2021/11/10 09:28:13;;;;;;;22.33;16.08;;;5.10;99.90;;;;;;5066637;28;20278;-84
2021/11/10 09:30:42;;;;;;;16.90;12.85;;;;;;;;;;5056524;28;20205;-83
2021/11/10 09:33:10;;;;;;;21.15;14.90;;;5.20;99.90;;;;;;5062527;28;20700;-84
2021/11/10 09:35:40;;;;;;;19.10;13.50;;;5.30;99.90;;;;;;5052869;28;20204;-83
2021/11/10 09:38:07;;;;;;;19.35;14.85;;;;;;;;;;5053385;28;20687;-84
2021/11/10 09:40:37;;;;;;;25.15;13.93;;;5.40;99.90;;;;;;5053350;28;20285;-83
2021/11/10 09:43:05;;;;;;;25.63;13.98;;;5.50;99.90;;;;;;5053600;28;20258;-83
2021/11/10 09:45:34;;;;;;;18.50;12.98;;;5.50;99.90;;;;;;5045653;28;20322;-83
2021/11/10 09:48:04;;;;;;;23.40;15.02;;;5.60;99.90;;;;;;5053024;28;20201;-84
2021/11/10 09:50:31;;;;;;;18.20;13.93;;;;;;;;;;5053403;28;20236;-83
2021/11/10 09:52:59;;;;;;;23.73;13.20;;;5.50;99.90;;;;;;5053398;28;20270;-84
2021/11/10 09:55:44;;;;;;;16.15;11.65;;;;;;;;;;5053151;28;20200;-84
2021/11/10 09:58:13;;;;;;;20.45;13.15;;;;;;;;;;5053312;28;20668;-84
2021/11/10 10:04:21;;;;;;;17.30;12.30;;;;;;;;;;5047461;28;20216;-85
2021/11/10 10:06:55;;;;;;;16.20;11.43;;;;;;;;;;5051908;28;20228;-83
2021/11/10 10:09:25;;;;;;;20.27;11.90;;;;;;;;;;5052719;28;20227;-84
2021/11/10 10:11:52;;;;;;;23.60;13.85;;;;;;;;;;5052612;28;20228;-83
2021/11/10 10:14:20;;;;;;;15.82;11.38;;;;;;;;;;5052622;28;20216;-82
2021/11/10 10:16:49;;;;;;;18.88;13.30;;;;;;;;;;5052910;28;20196;-83
2021/11/10 10:19:17;;;;;;;18.08;12.80;;;;;;;;;;5052093;28;20246;-83
2021/11/10 10:21:46;;;;;;;19.13;11.80;;;;;;;;;;5052469;28;20658;-83
2021/11/10 10:24:18;;;;;;;16.65;12.38;;;6.20;99.90;;;;;;5052981;28;20216;-83
2021/11/10 10:26:54;;;;;;;21.30;13.52;;;;;;;;;;5056207;28;20217;-84
2021/11/10 10:29:21;;;;;;;19.95;12.30;;;;;;;;;;5069381;28;20206;-83
2021/11/10 10:31:49;;;;;;;18.33;13.18;;;;;;;;;;5061817;28;20200;-84
2021/11/10 10:37:01;;;;;;;19.38;13.80;;;;;;;;;;5050538;28;20359;-84
2021/11/10 10:39:30;;;;;;;20.42;13.77;;;;;;;;;;5066131;28;20200;-83
2021/11/10 10:41:58;;;;;;;15.00;12.63;;;6.70;99.90;;;;;;5049944;28;20195;-84
2021/11/10 10:44:27;;;;;;;17.55;13.00;;;6.70;99.90;;;;;;5067942;28;20605;-83
2021/11/10 10:46:58;;;;;;;15.82;12.43;;;6.70;99.90;;;;;;5071868;28;20199;-85
2021/11/10 10:49:30;;;;;;;19.25;13.20;;;6.70;99.90;;;;;;5058847;28;20200;-84
2021/11/10 10:52:12;;;;;;;19.65;13.75;;;6.90;99.90;;;;;;5064987;28;20207;-84
2021/11/10 10:54:43;;;;;;;19.95;13.77;;;;;;;;;;5054746;28;20230;-84
2021/11/10 10:57:12;;;;;;;19.73;13.32;;;;;;;;;;5065699;28;20268;-84
2021/11/10 10:59:39;;;;;;;20.17;13.43;;;;;;;;;;5062161;28;20230;-84
2021/11/10 11:02:07;;;;;;;16.52;12.15;;;;;;;;;;5057634;28;20201;-84
2021/11/10 11:04:35;;;;;;;17.23;13.90;;;7.20;99.90;;;;;;5068170;28;20256;-83
2021/11/10 11:07:04;;;;;;;20.90;12.90;;;7.10;99.90;;;;;;5056574;28;21121;-84
2021/11/10 11:09:34;;;;;;;18.43;12.97;;;7.20;99.90;;;;;;5062205;28;21240;-84
2021/11/10 11:12:05;;;;;;;17.47;12.87;;;7.30;99.90;;;;;;5064539;28;20728;-84
2021/11/10 11:14:42;;;;;;;18.10;12.57;;;7.30;99.90;;;;;;5056246;28;20712;-85
2021/11/10 11:17:25;;;;;;;15.73;11.60;;;7.50;99.90;;;;;;5064906;28;20628;-84
2021/11/10 11:20:27;;;;;;;18.42;13.20;;;;;;;;;;5062771;28;21284;-84
2021/11/10 11:22:56;;;;;;;12.43;10.33;;;7.60;99.90;;;;;;5063400;28;20196;-84
2021/11/10 11:25:26;;;;;;;16.00;13.07;;;7.60;99.90;;;;;;5063410;28;20630;-84
2021/11/10 11:27:56;;;;;;;13.73;11.70;;;7.60;99.90;;;;;;5063075;28;20672;-83
2021/11/10 11:30:25;;;;;;;17.23;12.77;;;7.50;99.90;;;;;;5058026;28;20618;-82
2021/11/10 11:32:55;;;;;;;15.70;13.97;;;7.50;99.90;;;;;;5062763;28;20673;-83
2021/11/10 11:35:26;;;;;;;18.43;14.23;;;7.60;99.90;;;;;;5052565;28;20670;-84
2021/11/10 11:37:55;;;;;;;22.77;14.73;;;7.60;99.90;;;;;;5067415;28;20851;-84
2021/11/10 11:40:23;;;;;;;19.03;12.23;;;;;;;;;;5053037;28;21074;-83
2021/11/10 11:42:50;;;;;;;20.83;13.80;;;;;;;;;;5067051;28;21325;-84
2021/11/10 11:45:19;;;;;;;19.60;13.57;;;7.60;99.90;;;;;;5058179;28;20676;-85
2021/11/10 11:47:47;;;;;;;19.87;13.57;;;7.60;99.90;;;;;;5059661;28;20631;-84
2021/11/10 11:50:15;;;;;;;19.93;13.23;;;7.60;99.70;;;;;;5065667;28;21345;-84
2021/11/10 11:52:44;;;;;;;20.40;13.13;;;;;;;;;;5054108;28;20619;-84
2021/11/10 11:55:18;;;;;;;25.80;13.50;;;7.30;99.90;;;;;;5063490;28;20686;-84
2021/11/10 11:57:48;;;;;;;19.10;14.57;;;7.80;99.90;;;;;;5061787;28;20647;-85
2021/11/10 12:00:19;;;;;;;18.70;13.27;;;7.80;99.90;;;;;;5055314;28;20647;-84
2021/11/10 12:02:48;;;;;;;19.30;14.70;;;7.90;99.90;;;;;;5067094;28;20618;-85
2021/11/10 12:05:19;;;;;;;17.80;12.50;;;7.90;99.90;;;;;;5057634;28;20656;-84
2021/11/10 12:07:51;;;;;;;16.43;12.20;;;8.00;99.90;;;;;;5062207;28;20979;-84
2021/11/10 12:10:42;;;;;;;15.23;12.90;;;8.00;99.90;;;;;;5061732;28;20630;-84
2021/11/10 12:13:23;;;;;;;18.10;13.57;;;8.10;99.90;;;;;;5056633;28;20716;-85
2021/11/10 12:16:21;;;;;;;21.73;13.80;;;8.10;99.90;;;;;;5058215;28;21231;-85
2021/11/10 12:18:55;;;;;;;16.93;12.07;;;8.20;99.90;;;;;;5032085;28;20691;-85
2021/11/10 12:21:30;;;;;;;28.83;14.27;;;8.30;99.90;;;;;;5051800;28;20684;-85
2021/11/10 12:24:20;;;;;;;22.83;12.47;;;;;;;;;;5070192;28;20637;-85
2021/11/10 12:27:10;;;;;;;20.20;12.47;;;8.40;97.10;;;;;;5057087;28;20615;-84
2021/11/10 12:29:58;;;;;;;15.20;11.40;;;8.40;99.90;;;;;;5037706;28;20657;-84
2021/11/10 12:32:43;;;;;;;18.10;12.20;;;;;;;;;;5059776;28;20646;-85
2021/11/10 12:35:20;;;;;;;16.10;13.00;;;8.60;99.90;;;;;;5066765;28;20672;-84
2021/11/10 12:37:49;;;;;;;23.07;12.23;;;;;;;;;;5041697;28;20633;-84
2021/11/10 12:40:18;;;;;;;20.20;13.10;;;8.70;99.90;;;;;;5073142;28;20636;-84
2021/11/10 12:42:52;;;;;;;22.03;14.93;;;8.70;99.90;;;;;;5054138;28;20659;-84
2021/11/10 12:45:28;;;;;;;18.53;14.10;;;8.70;99.90;;;;;;5054028;28;20622;-84
2021/11/10 12:48:01;;;;;;;20.43;13.40;;;8.80;99.90;;;;;;5054636;28;20638;-84
2021/11/10 12:50:33;;;;;;;19.63;13.43;;;8.70;99.90;;;;;;5054074;28;21167;-83
2021/11/10 12:53:01;;;;;;;18.23;12.57;;;8.80;99.90;;;;;;5054370;28;20626;-84
2021/11/10 12:55:34;;;;;;;29.63;15.10;;;9.10;99.90;;;;;;5054167;28;20654;-82
2021/11/10 12:58:14;;;;;;;15.37;12.50;;;8.80;99.70;;;;;;5054362;28;20683;-83
2021/11/10 13:00:41;;;;;;;16.93;12.70;;;;;;;;;;5054133;28;20629;-82
2021/11/10 13:03:20;;;;;;;19.57;13.60;;;;;;;;;;5053869;28;20729;-82
2021/11/10 13:05:53;;;;;;;18.60;13.03;;;;;;;;;;5054002;28;20614;-82
2021/11/10 13:08:28;;;;;;;21.90;14.90;;;;;;;;;;5054404;28;21005;-81
2021/11/10 13:10:56;;;;;;;16.17;14.47;;;;;;;;;;5053666;28;20658;-82
2021/11/10 13:13:23;;;;;;;21.63;13.73;;;;;;;;;;5053970;28;20676;-82
2021/11/10 13:15:51;;;;;;;19.30;15.07;;;;;;;;;;5053738;28;20670;-82
2021/11/10 13:18:22;;;;;;;16.20;14.43;;;8.60;99.60;;;;;;5053763;28;21184;-82
2021/11/10 13:20:50;;;;;;;21.00;14.20;;;8.70;99.90;;;;;;5053879;28;20704;-83
2021/11/10 13:23:21;;;;;;;20.30;14.97;;;8.60;99.90;;;;;;5054018;28;20973;-83
2021/11/10 13:25:49;;;;;;;15.37;13.70;;;;;;;;;;5053900;28;21198;-83
2021/11/10 13:28:18;;;;;;;15.73;14.13;;;;;;;;;;5053863;28;20661;-83
2021/11/10 13:30:46;;;;;;;19.67;13.43;;;;;;;;;;5053358;28;20704;-83
2021/11/10 13:33:21;;;;;;;23.53;15.63;;;;;;;;;;5053153;28;20615;-83
2021/11/10 13:35:49;;;;;;;20.67;15.67;;;;;;;;;;5053387;28;20700;-83
2021/11/10 13:38:16;;;;;;;21.13;16.07;;;;;;;;;;5053344;28;20634;-83
2021/11/10 13:40:43;;;;;;;28.60;16.80;;;;;;;;;;5053007;28;20619;-83
2021/11/10 13:43:11;;;;;;;28.43;16.03;;;;;;;;;;5053161;28;20647;-83
2021/11/10 13:45:38;;;;;;;37.17;15.43;;;;;;;;;;5052851;28;20634;-82
2021/11/10 13:48:06;;;;;;;33.63;16.50;;;;;;;;;;5053316;28;20665;-82
2021/11/10 13:50:38;;;;;;;21.83;16.97;;;8.50;99.90;;;;;;5052486;28;20758;-82
2021/11/10 13:53:08;;;;;;;20.80;16.47;;;8.40;99.90;;;;;;5053125;28;20618;-83
2021/11/10 13:55:36;;;;;;;18.33;15.50;;;8.50;99.90;;;;;;5052956;28;21005;-83
2021/11/10 13:58:10;;;;;;;19.30;15.77;;;8.40;99.90;;;;;;5052544;28;20627;-83
2021/11/10 14:00:37;;;;;;;22.40;15.70;;;;;;;;;;5053216;28;20646;-82
2021/11/10 14:03:04;;;;;;;20.37;15.80;;;;;;;;;;5053037;28;20665;-83
2021/11/10 14:05:32;;;;;;;25.37;17.50;;;;;;;;;;5053220;28;21273;-83